ROMMA est une association bénévole à but non lucratif. Votre soutien est indispensable : ADHERER à ROMMA ou FAIRE un DON

La Beaume - (05, Hautes Alpes)

Buëch (820 m)   Longitude: 5° 40' 9'' E   Latitude: 44° 32' 3'' N Station partenaire n°75
 

Détail journalier du     <<     >>

Température Precipitation Humidité Pression Vent Dir Rafale Dir. rafale Ensol.
Heure (°C) (mm) (%) (hPa) (km/h) (km/h) (min)
01:00 9.609210202SO6NNO0
02:00 9.509210192SO5SO0
03:00 9.309310191SO3SO0
04:00 9.109310191SO5SO0
05:00 8.309410192SO5SO0
06:00 8.109410181SO5OSO0
07:00 7.809410181OSO5OSO0
08:00 8.509510183NO6NO0
09:00 9.209510181SE6SSE0
10:00 12.609110181ENE6ESE60
11:00 15.107510184E10SE60
12:00 17.206510174SE10SE60
13:00 17.306410165SE10SE30
14:00 16.806910155SE8SSE0
15:00 17.006810152SSO8SSE0
16:00 16.207710152S5S0
17:00 15.407910152SO6ONO0
18:00 14.107510153ONO8NO0
19:00 13.007810153OSO8NO0
20:00 12.407910153N8NO0
21:00 12.408410152SSO6ONO0
22:00 11.708510152SSE6O0
23:00 11.508810162OSO5ONO0
minuit 11.20.29110162OSO5OSO0

Graphique du 28-10-2019

 

Serveur OMMA